sensor_id;sensor_type;location;lat;lon;timestamp;temperature;humidity
22747;DHT22;11540;52.130;5.648;2022-08-05T00:01:18;20.70;99.90
22747;DHT22;11540;52.130;5.648;2022-08-05T00:03:48;20.70;99.90
22747;DHT22;11540;52.130;5.648;2022-08-05T00:06:15;20.60;99.90
22747;DHT22;11540;52.130;5.648;2022-08-05T00:08:41;20.70;99.90
22747;DHT22;11540;52.130;5.648;2022-08-05T00:11:11;20.70;99.90
22747;DHT22;11540;52.130;5.648;2022-08-05T00:13:38;20.70;99.90
22747;DHT22;11540;52.130;5.648;2022-08-05T00:16:05;20.70;99.90
22747;DHT22;11540;52.130;5.648;2022-08-05T00:18:31;20.70;99.90
22747;DHT22;11540;52.130;5.648;2022-08-05T00:20:57;20.60;99.90
22747;DHT22;11540;52.130;5.648;2022-08-05T00:23:23;20.60;99.90
22747;DHT22;11540;52.130;5.648;2022-08-05T00:25:49;20.60;99.90
22747;DHT22;11540;52.130;5.648;2022-08-05T00:28:15;20.60;99.90
22747;DHT22;11540;52.130;5.648;2022-08-05T00:30:41;20.60;99.90
22747;DHT22;11540;52.130;5.648;2022-08-05T00:33:07;20.60;99.90
22747;DHT22;11540;52.130;5.648;2022-08-05T00:35:33;20.60;99.90
22747;DHT22;11540;52.130;5.648;2022-08-05T00:37:58;20.50;99.90
22747;DHT22;11540;52.130;5.648;2022-08-05T00:40:25;20.50;99.90
22747;DHT22;11540;52.130;5.648;2022-08-05T00:42:51;20.50;99.90
22747;DHT22;11540;52.130;5.648;2022-08-05T00:45:16;20.50;99.90
22747;DHT22;11540;52.130;5.648;2022-08-05T00:47:42;20.40;99.90
22747;DHT22;11540;52.130;5.648;2022-08-05T00:50:08;20.50;99.90
22747;DHT22;11540;52.130;5.648;2022-08-05T00:52:34;20.50;99.90
22747;DHT22;11540;52.130;5.648;2022-08-05T00:55:00;20.50;99.90
22747;DHT22;11540;52.130;5.648;2022-08-05T00:57:25;20.40;99.90
22747;DHT22;11540;52.130;5.648;2022-08-05T00:59:51;20.40;99.90
22747;DHT22;11540;52.130;5.648;2022-08-05T01:02:16;20.40;99.90
22747;DHT22;11540;52.130;5.648;2022-08-05T01:04:42;20.40;99.90
22747;DHT22;11540;52.130;5.648;2022-08-05T01:07:08;20.40;99.90
22747;DHT22;11540;52.130;5.648;2022-08-05T01:09:33;20.40;99.90
22747;DHT22;11540;52.130;5.648;2022-08-05T01:12:05;20.40;99.90
22747;DHT22;11540;52.130;5.648;2022-08-05T01:14:36;20.40;99.90
22747;DHT22;11540;52.130;5.648;2022-08-05T01:17:09;20.30;99.90
22747;DHT22;11540;52.130;5.648;2022-08-05T01:19:46;20.30;99.90
22747;DHT22;11540;52.130;5.648;2022-08-05T01:30:33;20.20;99.90
22747;DHT22;11540;52.130;5.648;2022-08-05T01:33:04;20.20;99.90
22747;DHT22;11540;52.130;5.648;2022-08-05T01:35:32;20.20;99.90
22747;DHT22;11540;52.130;5.648;2022-08-05T01:38:00;20.10;99.90
22747;DHT22;11540;52.130;5.648;2022-08-05T01:40:28;20.20;99.90
22747;DHT22;11540;52.130;5.648;2022-08-05T01:42:56;20.10;99.90
22747;DHT22;11540;52.130;5.648;2022-08-05T01:45:24;20.10;99.90
22747;DHT22;11540;52.130;5.648;2022-08-05T01:47:52;20.10;99.90
22747;DHT22;11540;52.130;5.648;2022-08-05T01:50:32;20.10;99.90
22747;DHT22;11540;52.130;5.648;2022-08-05T01:53:01;19.90;99.90
22747;DHT22;11540;52.130;5.648;2022-08-05T01:55:31;19.90;99.90
22747;DHT22;11540;52.130;5.648;2022-08-05T01:57:57;19.90;99.90
22747;DHT22;11540;52.130;5.648;2022-08-05T02:00:25;19.80;99.90
22747;DHT22;11540;52.130;5.648;2022-08-05T02:02:54;19.80;99.90
22747;DHT22;11540;52.130;5.648;2022-08-05T02:05:27;19.70;99.90
22747;DHT22;11540;52.130;5.648;2022-08-05T02:07:55;19.70;99.90
22747;DHT22;11540;52.130;5.648;2022-08-05T02:10:21;19.70;99.90
22747;DHT22;11540;52.130;5.648;2022-08-05T02:12:53;19.80;99.90
22747;DHT22;11540;52.130;5.648;2022-08-05T02:18:10;19.80;99.90
22747;DHT22;11540;52.130;5.648;2022-08-05T02:20:58;19.80;99.90
22747;DHT22;11540;52.130;5.648;2022-08-05T02:23:30;19.70;99.90
22747;DHT22;11540;52.130;5.648;2022-08-05T02:25:58;19.70;99.90
22747;DHT22;11540;52.130;5.648;2022-08-05T02:28:28;19.60;99.90
22747;DHT22;11540;52.130;5.648;2022-08-05T02:31:03;19.70;99.90
22747;DHT22;11540;52.130;5.648;2022-08-05T02:33:31;19.70;99.90
22747;DHT22;11540;52.130;5.648;2022-08-05T02:36:00;19.60;99.90
22747;DHT22;11540;52.130;5.648;2022-08-05T02:38:28;19.70;99.90
22747;DHT22;11540;52.130;5.648;2022-08-05T02:40:54;19.70;99.90
22747;DHT22;11540;52.130;5.648;2022-08-05T02:43:23;19.80;99.90
22747;DHT22;11540;52.130;5.648;2022-08-05T02:45:50;19.70;99.90
22747;DHT22;11540;52.130;5.648;2022-08-05T02:48:17;19.60;99.90
22747;DHT22;11540;52.130;5.648;2022-08-05T02:50:45;19.70;99.90
22747;DHT22;11540;52.130;5.648;2022-08-05T02:53:13;19.60;99.90
22747;DHT22;11540;52.130;5.648;2022-08-05T02:55:39;19.60;99.90
22747;DHT22;11540;52.130;5.648;2022-08-05T02:58:05;19.60;99.90
22747;DHT22;11540;52.130;5.648;2022-08-05T03:00:32;19.50;99.90
22747;DHT22;11540;52.130;5.648;2022-08-05T03:02:59;19.50;99.90
22747;DHT22;11540;52.130;5.648;2022-08-05T03:05:26;19.50;99.90
22747;DHT22;11540;52.130;5.648;2022-08-05T03:07:52;19.50;99.90
22747;DHT22;11540;52.130;5.648;2022-08-05T03:10:18;19.40;99.90
22747;DHT22;11540;52.130;5.648;2022-08-05T03:12:45;19.50;99.90
22747;DHT22;11540;52.130;5.648;2022-08-05T03:15:11;19.40;99.90
22747;DHT22;11540;52.130;5.648;2022-08-05T03:17:37;19.40;99.90
22747;DHT22;11540;52.130;5.648;2022-08-05T03:20:03;19.40;99.90
22747;DHT22;11540;52.130;5.648;2022-08-05T03:22:29;19.40;99.90
22747;DHT22;11540;52.130;5.648;2022-08-05T03:24:56;19.30;99.90
22747;DHT22;11540;52.130;5.648;2022-08-05T03:27:22;19.30;99.90
22747;DHT22;11540;52.130;5.648;2022-08-05T03:29:48;19.30;99.90
22747;DHT22;11540;52.130;5.648;2022-08-05T03:32:14;19.30;99.90
22747;DHT22;11540;52.130;5.648;2022-08-05T03:34:41;19.40;99.90
22747;DHT22;11540;52.130;5.648;2022-08-05T03:37:07;19.40;99.90
22747;DHT22;11540;52.130;5.648;2022-08-05T03:39:33;19.40;99.90
22747;DHT22;11540;52.130;5.648;2022-08-05T03:41:58;19.40;99.90
22747;DHT22;11540;52.130;5.648;2022-08-05T03:44:24;19.40;99.90
22747;DHT22;11540;52.130;5.648;2022-08-05T03:46:50;19.30;99.90
22747;DHT22;11540;52.130;5.648;2022-08-05T03:49:16;19.30;99.90
22747;DHT22;11540;52.130;5.648;2022-08-05T03:51:49;19.40;99.90
22747;DHT22;11540;52.130;5.648;2022-08-05T03:54:42;19.40;99.90
22747;DHT22;11540;52.130;5.648;2022-08-05T03:57:11;19.40;99.90
22747;DHT22;11540;52.130;5.648;2022-08-05T03:59:41;19.40;99.90
22747;DHT22;11540;52.130;5.648;2022-08-05T04:02:09;19.30;99.90
22747;DHT22;11540;52.130;5.648;2022-08-05T04:04:35;19.30;99.90
22747;DHT22;11540;52.130;5.648;2022-08-05T04:07:02;19.30;99.90
22747;DHT22;11540;52.130;5.648;2022-08-05T04:09:30;19.20;99.90
22747;DHT22;11540;52.130;5.648;2022-08-05T04:11:56;19.20;99.90
22747;DHT22;11540;52.130;5.648;2022-08-05T04:14:22;19.20;99.90
22747;DHT22;11540;52.130;5.648;2022-08-05T04:16:47;19.20;99.90
22747;DHT22;11540;52.130;5.648;2022-08-05T04:19:13;19.20;99.90
22747;DHT22;11540;52.130;5.648;2022-08-05T04:21:40;19.20;99.90
22747;DHT22;11540;52.130;5.648;2022-08-05T04:24:06;19.20;99.90
22747;DHT22;11540;52.130;5.648;2022-08-05T04:26:32;19.10;99.90
22747;DHT22;11540;52.130;5.648;2022-08-05T04:28:57;19.10;99.90
22747;DHT22;11540;52.130;5.648;2022-08-05T04:31:23;19.10;99.90
22747;DHT22;11540;52.130;5.648;2022-08-05T04:33:48;19.00;99.90
22747;DHT22;11540;52.130;5.648;2022-08-05T04:36:14;18.90;99.90
22747;DHT22;11540;52.130;5.648;2022-08-05T04:38:41;18.80;99.90
22747;DHT22;11540;52.130;5.648;2022-08-05T04:41:07;18.80;99.90
22747;DHT22;11540;52.130;5.648;2022-08-05T04:43:33;18.80;99.90
22747;DHT22;11540;52.130;5.648;2022-08-05T04:45:58;18.70;99.90
22747;DHT22;11540;52.130;5.648;2022-08-05T04:48:24;18.70;99.90
22747;DHT22;11540;52.130;5.648;2022-08-05T04:50:49;18.70;99.90
22747;DHT22;11540;52.130;5.648;2022-08-05T04:53:16;18.70;99.90
22747;DHT22;11540;52.130;5.648;2022-08-05T04:55:43;18.70;99.90
22747;DHT22;11540;52.130;5.648;2022-08-05T04:58:12;18.70;99.90
22747;DHT22;11540;52.130;5.648;2022-08-05T05:00:38;18.70;99.90
22747;DHT22;11540;52.130;5.648;2022-08-05T05:03:06;18.60;99.90
22747;DHT22;11540;52.130;5.648;2022-08-05T05:05:32;18.60;99.90
22747;DHT22;11540;52.130;5.648;2022-08-05T05:08:04;18.60;99.90
22747;DHT22;11540;52.130;5.648;2022-08-05T05:10:38;18.60;99.90
22747;DHT22;11540;52.130;5.648;2022-08-05T05:13:08;18.50;99.90
22747;DHT22;11540;52.130;5.648;2022-08-05T05:15:34;18.50;99.90
22747;DHT22;11540;52.130;5.648;2022-08-05T05:17:59;18.50;99.90
22747;DHT22;11540;52.130;5.648;2022-08-05T05:20:25;18.40;99.90
22747;DHT22;11540;52.130;5.648;2022-08-05T05:22:50;18.40;99.90
22747;DHT22;11540;52.130;5.648;2022-08-05T05:25:16;18.40;99.90
22747;DHT22;11540;52.130;5.648;2022-08-05T05:27:41;18.30;99.90
22747;DHT22;11540;52.130;5.648;2022-08-05T05:30:07;18.30;99.90
22747;DHT22;11540;52.130;5.648;2022-08-05T05:32:33;18.40;99.90
22747;DHT22;11540;52.130;5.648;2022-08-05T05:34:59;18.30;99.90
22747;DHT22;11540;52.130;5.648;2022-08-05T05:37:24;18.30;99.90
22747;DHT22;11540;52.130;5.648;2022-08-05T05:39:50;18.40;99.90
22747;DHT22;11540;52.130;5.648;2022-08-05T05:42:15;18.40;99.90
22747;DHT22;11540;52.130;5.648;2022-08-05T05:44:41;18.40;99.90
22747;DHT22;11540;52.130;5.648;2022-08-05T05:47:06;18.30;99.90
22747;DHT22;11540;52.130;5.648;2022-08-05T05:49:32;18.30;99.90
22747;DHT22;11540;52.130;5.648;2022-08-05T05:51:58;18.40;99.90
22747;DHT22;11540;52.130;5.648;2022-08-05T05:54:23;18.40;99.90
22747;DHT22;11540;52.130;5.648;2022-08-05T05:56:49;18.40;99.90
22747;DHT22;11540;52.130;5.648;2022-08-05T05:59:14;18.30;99.90
22747;DHT22;11540;52.130;5.648;2022-08-05T06:01:41;18.40;99.90
22747;DHT22;11540;52.130;5.648;2022-08-05T06:04:08;18.40;99.90
22747;DHT22;11540;52.130;5.648;2022-08-05T06:06:34;18.50;99.90
22747;DHT22;11540;52.130;5.648;2022-08-05T06:09:01;18.50;99.90
22747;DHT22;11540;52.130;5.648;2022-08-05T06:11:27;18.50;99.90
22747;DHT22;11540;52.130;5.648;2022-08-05T06:13:52;18.50;99.90
22747;DHT22;11540;52.130;5.648;2022-08-05T06:16:18;18.50;99.90
22747;DHT22;11540;52.130;5.648;2022-08-05T06:18:43;18.60;99.90
22747;DHT22;11540;52.130;5.648;2022-08-05T06:21:09;18.80;99.90
22747;DHT22;11540;52.130;5.648;2022-08-05T06:23:34;19.00;99.90
22747;DHT22;11540;52.130;5.648;2022-08-05T06:26:00;19.10;99.90
22747;DHT22;11540;52.130;5.648;2022-08-05T06:28:25;19.10;99.90
22747;DHT22;11540;52.130;5.648;2022-08-05T06:30:51;19.30;99.90
22747;DHT22;11540;52.130;5.648;2022-08-05T06:33:16;19.30;99.90
22747;DHT22;11540;52.130;5.648;2022-08-05T06:35:42;19.30;99.90
22747;DHT22;11540;52.130;5.648;2022-08-05T06:38:07;19.40;99.90
22747;DHT22;11540;52.130;5.648;2022-08-05T06:40:33;19.50;99.90
22747;DHT22;11540;52.130;5.648;2022-08-05T06:42:58;19.60;99.90
22747;DHT22;11540;52.130;5.648;2022-08-05T06:45:24;19.70;99.90
22747;DHT22;11540;52.130;5.648;2022-08-05T06:47:49;19.90;99.90
22747;DHT22;11540;52.130;5.648;2022-08-05T06:50:15;19.90;99.90
22747;DHT22;11540;52.130;5.648;2022-08-05T06:52:41;19.80;99.90
22747;DHT22;11540;52.130;5.648;2022-08-05T06:55:06;19.80;99.90
22747;DHT22;11540;52.130;5.648;2022-08-05T06:57:32;19.80;99.90
22747;DHT22;11540;52.130;5.648;2022-08-05T06:59:58;19.70;99.90
22747;DHT22;11540;52.130;5.648;2022-08-05T07:02:23;19.90;99.90
22747;DHT22;11540;52.130;5.648;2022-08-05T07:04:49;20.00;99.90
22747;DHT22;11540;52.130;5.648;2022-08-05T07:07:14;20.10;99.90
22747;DHT22;11540;52.130;5.648;2022-08-05T07:09:40;20.20;99.90
22747;DHT22;11540;52.130;5.648;2022-08-05T07:12:06;20.30;99.90
22747;DHT22;11540;52.130;5.648;2022-08-05T07:14:31;20.30;99.90
22747;DHT22;11540;52.130;5.648;2022-08-05T07:17:15;20.20;99.90
22747;DHT22;11540;52.130;5.648;2022-08-05T07:19:41;20.30;99.90
22747;DHT22;11540;52.130;5.648;2022-08-05T07:22:07;20.50;99.90
22747;DHT22;11540;52.130;5.648;2022-08-05T07:24:32;20.60;99.90
22747;DHT22;11540;52.130;5.648;2022-08-05T07:26:58;20.70;99.90
22747;DHT22;11540;52.130;5.648;2022-08-05T07:29:23;20.80;99.90
22747;DHT22;11540;52.130;5.648;2022-08-05T07:31:49;20.80;99.90
22747;DHT22;11540;52.130;5.648;2022-08-05T07:34:14;20.90;99.90
22747;DHT22;11540;52.130;5.648;2022-08-05T07:36:40;20.80;99.90
22747;DHT22;11540;52.130;5.648;2022-08-05T07:39:08;20.80;99.90
22747;DHT22;11540;52.130;5.648;2022-08-05T07:41:34;20.90;99.90
22747;DHT22;11540;52.130;5.648;2022-08-05T07:44:00;20.90;99.90
22747;DHT22;11540;52.130;5.648;2022-08-05T07:46:28;21.00;99.90
22747;DHT22;11540;52.130;5.648;2022-08-05T07:48:55;21.00;99.90
22747;DHT22;11540;52.130;5.648;2022-08-05T07:51:21;21.10;99.90
22747;DHT22;11540;52.130;5.648;2022-08-05T07:53:46;21.20;99.90
22747;DHT22;11540;52.130;5.648;2022-08-05T07:56:12;21.10;99.90
22747;DHT22;11540;52.130;5.648;2022-08-05T07:58:37;20.80;99.90
22747;DHT22;11540;52.130;5.648;2022-08-05T08:01:03;20.80;99.90
22747;DHT22;11540;52.130;5.648;2022-08-05T08:03:28;20.60;99.90
22747;DHT22;11540;52.130;5.648;2022-08-05T08:05:54;20.40;99.90
22747;DHT22;11540;52.130;5.648;2022-08-05T08:08:19;20.30;99.90
22747;DHT22;11540;52.130;5.648;2022-08-05T08:10:45;20.30;99.90
22747;DHT22;11540;52.130;5.648;2022-08-05T08:13:10;20.30;99.90
22747;DHT22;11540;52.130;5.648;2022-08-05T08:15:36;20.60;99.90
22747;DHT22;11540;52.130;5.648;2022-08-05T08:18:02;21.10;99.90
22747;DHT22;11540;52.130;5.648;2022-08-05T08:20:27;21.50;99.90
22747;DHT22;11540;52.130;5.648;2022-08-05T08:22:55;22.00;99.90
22747;DHT22;11540;52.130;5.648;2022-08-05T08:25:20;22.30;99.90
22747;DHT22;11540;52.130;5.648;2022-08-05T08:27:46;22.60;99.90
22747;DHT22;11540;52.130;5.648;2022-08-05T08:30:12;22.90;99.90
22747;DHT22;11540;52.130;5.648;2022-08-05T08:32:38;23.20;99.90
22747;DHT22;11540;52.130;5.648;2022-08-05T08:35:04;23.40;99.90
22747;DHT22;11540;52.130;5.648;2022-08-05T08:37:30;23.70;99.90
22747;DHT22;11540;52.130;5.648;2022-08-05T08:39:56;23.60;99.90
22747;DHT22;11540;52.130;5.648;2022-08-05T08:42:22;23.60;99.90
22747;DHT22;11540;52.130;5.648;2022-08-05T08:44:48;23.50;99.90
22747;DHT22;11540;52.130;5.648;2022-08-05T08:47:15;23.50;99.90
22747;DHT22;11540;52.130;5.648;2022-08-05T08:49:43;23.30;99.90
22747;DHT22;11540;52.130;5.648;2022-08-05T08:52:18;23.30;99.90
22747;DHT22;11540;52.130;5.648;2022-08-05T08:54:47;23.60;99.90
22747;DHT22;11540;52.130;5.648;2022-08-05T08:57:12;23.90;99.90
22747;DHT22;11540;52.130;5.648;2022-08-05T08:59:38;24.10;99.90
22747;DHT22;11540;52.130;5.648;2022-08-05T09:02:05;23.60;99.90
22747;DHT22;11540;52.130;5.648;2022-08-05T09:04:36;23.10;99.90
22747;DHT22;11540;52.130;5.648;2022-08-05T09:07:05;23.40;99.90
22747;DHT22;11540;52.130;5.648;2022-08-05T09:09:32;23.70;99.90
22747;DHT22;11540;52.130;5.648;2022-08-05T09:11:58;23.80;99.90
22747;DHT22;11540;52.130;5.648;2022-08-05T09:14:24;23.30;99.90
22747;DHT22;11540;52.130;5.648;2022-08-05T09:16:50;23.10;99.90
22747;DHT22;11540;52.130;5.648;2022-08-05T09:19:16;22.80;99.90
22747;DHT22;11540;52.130;5.648;2022-08-05T09:21:41;22.70;99.90
22747;DHT22;11540;52.130;5.648;2022-08-05T09:24:08;23.10;99.90
22747;DHT22;11540;52.130;5.648;2022-08-05T09:26:35;23.60;99.90
22747;DHT22;11540;52.130;5.648;2022-08-05T09:29:03;24.20;99.90
22747;DHT22;11540;52.130;5.648;2022-08-05T09:31:30;24.50;99.90
22747;DHT22;11540;52.130;5.648;2022-08-05T09:33:59;24.30;99.90
22747;DHT22;11540;52.130;5.648;2022-08-05T09:36:46;23.80;99.90
22747;DHT22;11540;52.130;5.648;2022-08-05T09:39:17;23.60;99.90
22747;DHT22;11540;52.130;5.648;2022-08-05T09:41:57;23.90;99.90
22747;DHT22;11540;52.130;5.648;2022-08-05T09:44:38;24.30;99.90
22747;DHT22;11540;52.130;5.648;2022-08-05T09:49:48;25.20;99.90
22747;DHT22;11540;52.130;5.648;2022-08-05T09:55:01;25.10;99.90
22747;DHT22;11540;52.130;5.648;2022-08-05T09:57:45;24.40;99.90
22747;DHT22;11540;52.130;5.648;2022-08-05T10:00:20;24.20;99.90
22747;DHT22;11540;52.130;5.648;2022-08-05T10:02:50;24.20;99.90
22747;DHT22;11540;52.130;5.648;2022-08-05T10:05:20;24.00;99.90
22747;DHT22;11540;52.130;5.648;2022-08-05T10:07:54;24.00;99.90
22747;DHT22;11540;52.130;5.648;2022-08-05T10:10:25;23.70;99.90
22747;DHT22;11540;52.130;5.648;2022-08-05T10:12:54;23.50;99.90
22747;DHT22;11540;52.130;5.648;2022-08-05T10:15:25;23.50;99.90
22747;DHT22;11540;52.130;5.648;2022-08-05T10:18:13;23.30;99.90
22747;DHT22;11540;52.130;5.648;2022-08-05T10:23:13;23.20;99.90
22747;DHT22;11540;52.130;5.648;2022-08-05T10:25:40;23.10;99.90
22747;DHT22;11540;52.130;5.648;2022-08-05T10:28:06;23.40;99.90
22747;DHT22;11540;52.130;5.648;2022-08-05T10:30:32;23.80;99.90
22747;DHT22;11540;52.130;5.648;2022-08-05T10:32:57;24.20;99.90
22747;DHT22;11540;52.130;5.648;2022-08-05T10:35:24;25.10;99.90
22747;DHT22;11540;52.130;5.648;2022-08-05T10:37:51;25.40;99.90
22747;DHT22;11540;52.130;5.648;2022-08-05T10:40:27;25.70;99.90
22747;DHT22;11540;52.130;5.648;2022-08-05T10:43:00;25.00;99.90
22747;DHT22;11540;52.130;5.648;2022-08-05T10:45:27;24.60;99.90
22747;DHT22;11540;52.130;5.648;2022-08-05T10:47:54;24.40;99.90
22747;DHT22;11540;52.130;5.648;2022-08-05T10:50:20;24.80;99.90
22747;DHT22;11540;52.130;5.648;2022-08-05T10:52:48;24.90;99.90
22747;DHT22;11540;52.130;5.648;2022-08-05T10:55:32;25.20;99.90
22747;DHT22;11540;52.130;5.648;2022-08-05T10:58:11;26.10;99.90
22747;DHT22;11540;52.130;5.648;2022-08-05T11:00:37;26.90;99.90
22747;DHT22;11540;52.130;5.648;2022-08-05T11:03:10;27.30;99.50
22747;DHT22;11540;52.130;5.648;2022-08-05T11:05:37;27.80;98.80
22747;DHT22;11540;52.130;5.648;2022-08-05T11:08:07;28.10;99.20
22747;DHT22;11540;52.130;5.648;2022-08-05T11:10:34;27.00;98.90
22747;DHT22;11540;52.130;5.648;2022-08-05T11:13:04;26.40;99.00
22747;DHT22;11540;52.130;5.648;2022-08-05T11:15:32;25.40;98.10
22747;DHT22;11540;52.130;5.648;2022-08-05T11:20:45;25.70;98.20
22747;DHT22;11540;52.130;5.648;2022-08-05T11:33:51;26.40;95.40
22747;DHT22;11540;52.130;5.648;2022-08-05T11:36:19;25.60;95.10
22747;DHT22;11540;52.130;5.648;2022-08-05T11:41:21;25.50;96.50
22747;DHT22;11540;52.130;5.648;2022-08-05T11:48:58;25.40;97.10
22747;DHT22;11540;52.130;5.648;2022-08-05T11:51:26;25.50;96.50
22747;DHT22;11540;52.130;5.648;2022-08-05T11:53:53;25.00;96.10
22747;DHT22;11540;52.130;5.648;2022-08-05T11:56:20;24.60;97.60
22747;DHT22;11540;52.130;5.648;2022-08-05T11:58:47;24.40;97.10
22747;DHT22;11540;52.130;5.648;2022-08-05T12:01:20;24.60;96.50
22747;DHT22;11540;52.130;5.648;2022-08-05T12:03:51;24.40;97.80
22747;DHT22;11540;52.130;5.648;2022-08-05T12:06:20;24.20;97.40
22747;DHT22;11540;52.130;5.648;2022-08-05T12:08:51;23.60;98.30
22747;DHT22;11540;52.130;5.648;2022-08-05T12:14:06;23.60;98.60
22747;DHT22;11540;52.130;5.648;2022-08-05T12:16:37;23.80;99.00
22747;DHT22;11540;52.130;5.648;2022-08-05T12:19:07;23.80;99.70
22747;DHT22;11540;52.130;5.648;2022-08-05T12:21:47;23.80;99.90
22747;DHT22;11540;52.130;5.648;2022-08-05T12:24:19;23.60;99.90
22747;DHT22;11540;52.130;5.648;2022-08-05T12:26:48;23.50;99.90
22747;DHT22;11540;52.130;5.648;2022-08-05T12:29:23;23.40;99.90
22747;DHT22;11540;52.130;5.648;2022-08-05T12:31:57;23.50;99.90
22747;DHT22;11540;52.130;5.648;2022-08-05T12:34:29;23.60;99.90
22747;DHT22;11540;52.130;5.648;2022-08-05T12:37:01;24.10;99.90
22747;DHT22;11540;52.130;5.648;2022-08-05T12:39:34;24.60;99.90
22747;DHT22;11540;52.130;5.648;2022-08-05T12:42:01;25.50;99.90
22747;DHT22;11540;52.130;5.648;2022-08-05T12:44:27;25.60;99.60
22747;DHT22;11540;52.130;5.648;2022-08-05T12:46:54;25.90;99.90
22747;DHT22;11540;52.130;5.648;2022-08-05T12:49:20;26.60;99.80
22747;DHT22;11540;52.130;5.648;2022-08-05T12:51:47;27.10;99.90
22747;DHT22;11540;52.130;5.648;2022-08-05T12:54:22;27.30;99.10
22747;DHT22;11540;52.130;5.648;2022-08-05T12:57:06;27.00;99.90
22747;DHT22;11540;52.130;5.648;2022-08-05T13:02:08;26.10;99.20
22747;DHT22;11540;52.130;5.648;2022-08-05T13:04:36;25.70;99.90
22747;DHT22;11540;52.130;5.648;2022-08-05T13:07:09;25.40;99.90
22747;DHT22;11540;52.130;5.648;2022-08-05T13:09:38;24.80;99.90
22747;DHT22;11540;52.130;5.648;2022-08-05T13:12:06;24.20;99.90
22747;DHT22;11540;52.130;5.648;2022-08-05T13:14:46;23.90;99.90
22747;DHT22;11540;52.130;5.648;2022-08-05T13:17:18;23.70;99.90
22747;DHT22;11540;52.130;5.648;2022-08-05T13:22:30;23.80;99.90
22747;DHT22;11540;52.130;5.648;2022-08-05T13:25:01;24.00;99.90
22747;DHT22;11540;52.130;5.648;2022-08-05T13:27:34;23.90;99.90
22747;DHT22;11540;52.130;5.648;2022-08-05T13:30:00;23.70;99.90
22747;DHT22;11540;52.130;5.648;2022-08-05T13:32:27;23.40;99.90
22747;DHT22;11540;52.130;5.648;2022-08-05T13:34:53;23.70;99.90
22747;DHT22;11540;52.130;5.648;2022-08-05T13:37:20;23.90;99.90
22747;DHT22;11540;52.130;5.648;2022-08-05T13:39:47;23.70;99.90
22747;DHT22;11540;52.130;5.648;2022-08-05T13:42:12;23.90;99.90
22747;DHT22;11540;52.130;5.648;2022-08-05T13:44:38;23.80;99.90
22747;DHT22;11540;52.130;5.648;2022-08-05T13:47:03;24.00;99.90
22747;DHT22;11540;52.130;5.648;2022-08-05T13:49:29;23.90;99.90
22747;DHT22;11540;52.130;5.648;2022-08-05T13:51:55;24.30;99.90
22747;DHT22;11540;52.130;5.648;2022-08-05T13:54:20;24.90;99.90
22747;DHT22;11540;52.130;5.648;2022-08-05T13:56:46;25.70;99.70
22747;DHT22;11540;52.130;5.648;2022-08-05T13:59:12;26.20;98.90
22747;DHT22;11540;52.130;5.648;2022-08-05T14:01:38;25.50;99.50
22747;DHT22;11540;52.130;5.648;2022-08-05T14:04:04;24.90;99.90
22747;DHT22;11540;52.130;5.648;2022-08-05T14:06:48;25.10;99.90
22747;DHT22;11540;52.130;5.648;2022-08-05T14:09:13;25.60;99.90
22747;DHT22;11540;52.130;5.648;2022-08-05T14:11:39;25.80;98.40
22747;DHT22;11540;52.130;5.648;2022-08-05T14:14:06;25.30;99.30
22747;DHT22;11540;52.130;5.648;2022-08-05T14:16:32;24.70;99.90
22747;DHT22;11540;52.130;5.648;2022-08-05T14:18:58;24.00;99.90
22747;DHT22;11540;52.130;5.648;2022-08-05T14:21:24;23.70;99.90
22747;DHT22;11540;52.130;5.648;2022-08-05T14:23:49;24.00;99.90
22747;DHT22;11540;52.130;5.648;2022-08-05T14:26:15;25.00;99.90
22747;DHT22;11540;52.130;5.648;2022-08-05T14:28:40;25.70;99.90
22747;DHT22;11540;52.130;5.648;2022-08-05T14:31:06;25.90;99.90
22747;DHT22;11540;52.130;5.648;2022-08-05T14:33:32;25.60;99.90
22747;DHT22;11540;52.130;5.648;2022-08-05T14:35:58;25.20;99.90
22747;DHT22;11540;52.130;5.648;2022-08-05T14:38:24;25.00;99.90
22747;DHT22;11540;52.130;5.648;2022-08-05T14:40:50;25.80;99.90
22747;DHT22;11540;52.130;5.648;2022-08-05T14:43:16;26.60;99.90
22747;DHT22;11540;52.130;5.648;2022-08-05T14:45:41;27.00;99.50
22747;DHT22;11540;52.130;5.648;2022-08-05T14:48:07;27.20;98.90
22747;DHT22;11540;52.130;5.648;2022-08-05T14:50:32;25.90;98.00
22747;DHT22;11540;52.130;5.648;2022-08-05T14:52:58;25.50;99.20
22747;DHT22;11540;52.130;5.648;2022-08-05T14:55:25;25.00;98.60
22747;DHT22;11540;52.130;5.648;2022-08-05T14:57:51;24.90;99.50
22747;DHT22;11540;52.130;5.648;2022-08-05T15:00:16;24.40;99.90
22747;DHT22;11540;52.130;5.648;2022-08-05T15:02:42;24.00;99.90
22747;DHT22;11540;52.130;5.648;2022-08-05T15:05:08;24.10;99.90
22747;DHT22;11540;52.130;5.648;2022-08-05T15:07:34;24.40;99.90
22747;DHT22;11540;52.130;5.648;2022-08-05T15:10:00;24.20;99.90
22747;DHT22;11540;52.130;5.648;2022-08-05T15:12:25;24.00;99.90
22747;DHT22;11540;52.130;5.648;2022-08-05T15:14:51;24.80;99.90
22747;DHT22;11540;52.130;5.648;2022-08-05T15:17:17;25.10;99.60
22747;DHT22;11540;52.130;5.648;2022-08-05T15:19:43;24.60;99.90
22747;DHT22;11540;52.130;5.648;2022-08-05T15:22:09;24.00;99.90
22747;DHT22;11540;52.130;5.648;2022-08-05T15:24:34;23.70;99.90
22747;DHT22;11540;52.130;5.648;2022-08-05T15:27:00;23.70;99.90
22747;DHT22;11540;52.130;5.648;2022-08-05T15:29:25;23.40;99.90
22747;DHT22;11540;52.130;5.648;2022-08-05T15:31:51;23.00;99.90
22747;DHT22;11540;52.130;5.648;2022-08-05T15:34:16;22.90;99.90
22747;DHT22;11540;52.130;5.648;2022-08-05T15:36:42;23.00;99.90
22747;DHT22;11540;52.130;5.648;2022-08-05T15:39:07;23.10;99.90
22747;DHT22;11540;52.130;5.648;2022-08-05T15:41:33;23.70;99.90
22747;DHT22;11540;52.130;5.648;2022-08-05T15:43:58;24.00;99.90
22747;DHT22;11540;52.130;5.648;2022-08-05T15:46:24;23.90;99.90
22747;DHT22;11540;52.130;5.648;2022-08-05T15:48:49;23.50;99.90
22747;DHT22;11540;52.130;5.648;2022-08-05T15:51:15;23.00;99.90
22747;DHT22;11540;52.130;5.648;2022-08-05T15:53:41;22.70;99.90
22747;DHT22;11540;52.130;5.648;2022-08-05T15:56:06;22.60;99.90
22747;DHT22;11540;52.130;5.648;2022-08-05T15:58:32;22.30;99.90
22747;DHT22;11540;52.130;5.648;2022-08-05T16:00:58;22.20;99.90
22747;DHT22;11540;52.130;5.648;2022-08-05T16:03:23;22.30;99.90
22747;DHT22;11540;52.130;5.648;2022-08-05T16:05:51;22.40;99.90
22747;DHT22;11540;52.130;5.648;2022-08-05T16:08:16;22.70;99.90
22747;DHT22;11540;52.130;5.648;2022-08-05T16:10:41;23.00;99.90
22747;DHT22;11540;52.130;5.648;2022-08-05T16:13:07;22.90;99.90
22747;DHT22;11540;52.130;5.648;2022-08-05T16:15:32;22.60;99.90
22747;DHT22;11540;52.130;5.648;2022-08-05T16:17:58;22.50;99.90
22747;DHT22;11540;52.130;5.648;2022-08-05T16:20:24;22.30;99.90